Time;durP1;ratioP1;P1;durP2;ratioP2;P2;SDS_P1;SDS_P2;PMS_P1;PMS_P2;Temp;Humidity;BMP_temperature;BMP_pressure;BME280_temperature;BME280_humidity;BME280_pressure;Samples;Min_cycle;Max_cycle;Signal;HPM_P1;HPM_P2
2023/12/29 00:01:39;;;;;;;1999.90;999.90;;;;;;;0.93;87.06;96960.72;5077202;28;20057;-64
2023/12/29 00:04:07;;;;;;;1999.90;999.90;;;;;;;0.92;87.20;96956.44;5076858;28;20059;-66
2023/12/29 00:06:39;;;;;;;1999.90;999.90;;;;;;;0.89;87.47;96953.84;5076842;28;20383;-64
2023/12/29 00:09:07;;;;;;;1999.90;999.90;;;;;;;0.87;87.63;96947.78;5076671;28;20052;-66
2023/12/29 00:11:34;;;;;;;1999.90;999.90;;;;;;;0.81;87.65;96942.63;5076787;28;20068;-65
2023/12/29 00:14:01;;;;;;;1999.90;999.90;;;;;;;0.75;87.41;96946.00;5076556;28;20055;-65
2023/12/29 00:16:28;;;;;;;1999.90;999.90;;;;;;;0.72;87.66;96946.84;5076511;28;20080;-65
2023/12/29 00:18:55;;;;;;;1999.90;999.90;;;;;;;0.65;87.19;96941.63;5076384;28;20045;-66
2023/12/29 00:21:22;;;;;;;1999.90;999.90;;;;;;;0.60;87.63;96934.72;5076344;28;20110;-64
2023/12/29 00:23:51;;;;;;;1999.90;999.90;;;;;;;0.59;87.39;96932.13;5076271;28;20093;-67
2023/12/29 00:26:19;;;;;;;1999.90;999.90;;;;;;;0.54;87.84;96942.41;5076295;28;20553;-66
2023/12/29 00:28:46;;;;;;;1999.90;999.90;;;;;;;0.57;87.98;96936.44;5076327;28;20392;-64
2023/12/29 00:31:15;;;;;;;1999.90;999.90;;;;;;;0.49;88.22;96932.06;5076165;28;20079;-63
2023/12/29 00:33:42;;;;;;;1999.90;999.90;;;;;;;0.44;89.74;96923.44;5076439;28;20135;-64
2023/12/29 00:36:15;;;;;;;1999.90;999.90;;;;;;;0.46;90.65;96932.06;5076165;28;20052;-64
2023/12/29 00:38:42;;;;;;;1999.90;999.90;;;;;;;0.41;90.32;96926.00;5076211;28;20098;-66
2023/12/29 00:41:11;;;;;;;1999.90;999.90;;;;;;;0.47;89.79;96927.75;5076030;28;20509;-68
2023/12/29 00:43:38;;;;;;;1999.90;999.90;;;;;;;0.48;89.61;96932.06;5076234;28;20048;-67
2023/12/29 00:46:06;;;;;;;1999.90;999.90;;;;;;;0.54;89.78;96932.09;5075925;28;20102;-64
2023/12/29 00:48:33;;;;;;;1999.90;999.90;;;;;;;0.56;89.50;96939.84;5076015;28;20102;-66
2023/12/29 00:51:02;;;;;;;1999.90;999.90;;;;;;;0.61;89.11;96938.19;5075832;28;20139;-64
2023/12/29 00:53:31;;;;;;;1999.90;999.90;;;;;;;0.69;88.85;96945.97;5075769;28;20479;-66
2023/12/29 00:55:59;;;;;;;1999.90;999.90;;;;;;;0.65;87.78;96941.63;5074372;28;20044;-65
2023/12/29 00:58:28;;;;;;;1999.90;999.90;;;;;;;0.62;87.71;96933.03;5075365;28;20048;-64
2023/12/29 01:00:55;;;;;;;1999.90;999.90;;;;;;;0.62;87.56;96927.00;5075665;28;20086;-66
2023/12/29 01:03:23;;;;;;;1999.90;999.90;;;;;;;0.50;87.79;96931.22;5075459;28;20052;-63
2023/12/29 01:05:50;;;;;;;1999.90;999.90;;;;;;;0.44;87.94;96926.03;5075709;28;20044;-64
2023/12/29 01:08:17;;;;;;;1999.90;999.90;;;;;;;0.44;87.73;96931.16;5075604;28;20059;-65
2023/12/29 01:10:44;;;;;;;1999.90;999.90;;;;;;;0.42;88.05;96922.56;5075551;28;20053;-65
2023/12/29 01:13:12;;;;;;;1999.90;999.90;;;;;;;0.31;89.12;96922.50;5075696;28;20055;-64
2023/12/29 01:15:44;;;;;;;1999.90;999.90;;;;;;;0.35;88.46;96921.66;5075573;28;20053;-67
2023/12/29 01:18:11;;;;;;;1999.90;999.90;;;;;;;0.31;88.56;96919.03;5075832;28;20045;-67
2023/12/29 01:20:39;;;;;;;1999.90;999.90;;;;;;;0.28;89.57;96913.88;5075021;28;20139;-65
2023/12/29 01:23:06;;;;;;;1999.90;999.90;;;;;;;0.22;90.41;96907.84;5075362;28;20045;-68
2023/12/29 01:25:34;;;;;;;1999.90;999.90;;;;;;;0.18;90.71;96900.91;5075264;28;20135;-66
2023/12/29 01:28:01;;;;;;;1999.90;999.90;;;;;;;0.23;91.32;96903.53;5075290;28;20086;-67
2023/12/29 01:30:29;;;;;;;1999.90;999.90;;;;;;;0.20;91.77;96900.91;5075223;28;20419;-67
2023/12/29 01:32:57;;;;;;;1999.90;999.90;;;;;;;0.31;91.70;96904.47;5075271;28;20041;-66
2023/12/29 01:35:25;;;;;;;1999.90;999.90;;;;;;;0.37;91.31;96901.09;5075168;28;20045;-67
2023/12/29 01:37:52;;;;;;;1999.90;999.90;;;;;;;0.46;90.51;96900.28;5074984;28;20560;-65
2023/12/29 01:40:19;;;;;;;1999.90;999.90;;;;;;;0.52;89.70;96900.34;5074845;28;20143;-65
2023/12/29 01:42:47;;;;;;;1999.90;999.90;;;;;;;0.53;89.36;96888.31;5075132;28;20049;-66
2023/12/29 01:45:22;;;;;;;1999.90;999.90;;;;;;;0.58;88.97;96895.25;5075031;28;20053;-69
2023/12/29 01:47:49;;;;;;;1999.90;999.90;;;;;;;0.59;87.98;96890.94;5074735;28;20489;-66
2023/12/29 01:50:19;;;;;;;1999.90;999.90;;;;;;;0.52;87.77;96884.91;5074736;28;20128;-66
2023/12/29 01:52:49;;;;;;;1999.90;999.90;;;;;;;0.37;88.40;96886.47;5074790;28;20048;-63
2023/12/29 01:55:20;;;;;;;1999.90;999.90;;;;;;;0.39;89.63;96889.06;5074731;28;20055;-64
2023/12/29 01:57:48;;;;;;;1999.90;999.90;;;;;;;0.44;88.97;96889.09;5074637;28;20051;-68
2023/12/29 02:00:17;;;;;;;1999.90;999.90;;;;;;;0.36;88.04;96877.03;5074430;28;20498;-63
2023/12/29 02:02:47;;;;;;;1999.90;999.90;;;;;;;0.35;88.13;96866.72;5074766;28;20052;-66
2023/12/29 02:05:16;;;;;;;1999.90;999.90;;;;;;;0.31;88.42;96865.88;5074444;28;20040;-67
2023/12/29 02:07:46;;;;;;;1999.90;999.90;;;;;;;0.25;89.15;96866.66;5074023;28;20055;-67
2023/12/29 02:10:15;;;;;;;1999.90;999.90;;;;;;;0.25;90.08;96863.25;5074396;28;20044;-63
2023/12/29 02:12:43;;;;;;;1999.90;999.90;;;;;;;0.29;89.92;96864.97;5074234;28;20482;-68
2023/12/29 02:15:11;;;;;;;1999.90;999.90;;;;;;;0.24;89.59;96862.38;5074295;28;20049;-66
2023/12/29 02:17:43;;;;;;;1999.90;999.90;;;;;;;0.20;90.50;96852.91;5074166;28;20048;-66
2023/12/29 02:20:12;;;;;;;1999.90;999.90;;;;;;;0.26;90.83;96854.66;5073862;28;20141;-65
2023/12/29 02:22:40;;;;;;;1999.90;999.90;;;;;;;0.26;91.02;96846.94;5074244;28;20051;-66
2023/12/29 02:25:10;;;;;;;1999.90;999.90;;;;;;;0.25;91.19;96842.66;5074034;28;20048;-68
2023/12/29 02:27:51;;;;;;;1999.90;999.90;;;;;;;0.31;91.16;96845.28;5073992;28;20041;-64
2023/12/29 02:30:23;;;;;;;1999.90;999.90;;;;;;;0.36;90.36;96853.88;5073954;28;20490;-68
2023/12/29 02:32:55;;;;;;;1999.90;999.90;;;;;;;0.38;89.43;96853.88;5073936;28;20106;-65
2023/12/29 02:35:26;;;;;;;1999.90;999.90;;;;;;;0.36;88.59;96853.03;5073947;28;20044;-67
2023/12/29 02:37:53;;;;;;;;;;;;;;;0.33;88.05;96848.69;5074105;28;20106;-67
2023/12/29 02:40:22;;;;;;;1999.90;999.90;;;;;;;0.23;88.10;96837.50;5073745;28;20072;-64
2023/12/29 02:42:50;;;;;;;1999.90;999.90;;;;;;;0.20;88.45;96834.88;5073886;28;20052;-66
2023/12/29 02:45:18;;;;;;;1999.90;999.90;;;;;;;0.10;88.92;96833.09;5073764;28;20049;-62
2023/12/29 02:47:45;;;;;;;1999.90;999.90;;;;;;;0.12;88.80;96832.25;5073623;28;20051;-65
2023/12/29 02:50:13;;;;;;;1999.90;999.90;;;;;;;0.14;88.95;96826.25;5073566;28;20061;-63
2023/12/29 02:52:40;;;;;;;1999.90;999.90;;;;;;;0.08;88.96;96834.78;5073518;28;20119;-64
2023/12/29 02:55:08;;;;;;;1999.90;999.90;;;;;;;0.13;89.23;96840.84;5073376;28;20110;-65
2023/12/29 02:57:36;;;;;;;1999.90;999.90;;;;;;;0.17;88.62;96834.88;5073417;28;20096;-66
2023/12/29 03:00:05;;;;;;;1999.90;999.90;;;;;;;0.01;88.67;96836.44;5073294;28;20056;-66
2023/12/29 03:02:33;;;;;;;1999.90;999.90;;;;;;;0.05;89.32;96835.63;5073371;28;20052;-67
2023/12/29 03:05:01;;;;;;;1999.90;999.90;;;;;;;-0.03;90.16;96832.97;5073368;28;20083;-67
2023/12/29 03:07:28;;;;;;;1999.90;999.90;;;;;;;0.04;90.22;96833.03;5073132;28;20495;-64
2023/12/29 03:09:56;;;;;;;1999.90;999.90;;;;;;;0.02;90.02;96824.44;5073316;28;20080;-64
2023/12/29 03:12:23;;;;;;;1999.90;999.90;;;;;;;0.07;89.96;96830.50;5073343;28;20482;-65
2023/12/29 03:14:52;;;;;;;1999.90;999.90;;;;;;;0.11;89.78;96835.69;5073308;28;20080;-67
2023/12/29 03:17:19;;;;;;;1999.90;999.90;;;;;;;0.07;89.73;96830.50;5073268;28;20079;-64
2023/12/29 03:19:46;;;;;;;1999.90;999.90;;;;;;;0.04;89.72;96827.88;5072230;28;20106;-63
2023/12/29 03:22:15;;;;;;;1999.90;999.90;;;;;;;0.03;89.45;96823.59;5073094;28;20456;-63
2023/12/29 03:24:43;;;;;;;1999.90;999.90;;;;;;;0.05;88.95;96822.75;5073304;28;20101;-63
2023/12/29 03:27:11;;;;;;;1999.90;999.90;;;;;;;0.08;89.67;96822.78;5073129;28;20451;-67
2023/12/29 03:29:38;;;;;;;1999.90;999.90;;;;;;;0.08;89.97;96816.78;5073022;28;20048;-67
2023/12/29 03:32:07;;;;;;;1999.90;999.90;;;;;;;0.15;90.28;96821.09;5072919;28;20463;-68
2023/12/29 03:34:35;;;;;;;1999.90;999.90;;;;;;;0.17;89.59;96818.53;5073087;28;20087;-67
2023/12/29 03:37:02;;;;;;;1999.90;999.90;;;;;;;0.02;89.44;96816.72;5073001;28;20048;-65
2023/12/29 03:39:32;;;;;;;1999.90;999.90;;;;;;;0.06;89.22;96818.47;5073025;28;20045;-64
2023/12/29 03:41:59;;;;;;;1999.90;999.90;;;;;;;0.06;89.90;96818.47;5072827;28;20052;-67
2023/12/29 03:44:26;;;;;;;1999.90;999.90;;;;;;;0.05;89.29;96827.03;5073010;28;20127;-64
2023/12/29 03:46:53;;;;;;;1999.90;999.90;;;;;;;-0.03;89.64;96827.84;5072994;28;20041;-67
2023/12/29 03:49:22;;;;;;;1999.90;999.90;;;;;;;-0.01;90.34;96827.84;5072828;28;20041;-66
2023/12/29 03:51:49;;;;;;;1999.90;999.90;;;;;;;-0.04;89.54;96820.97;5072846;28;20498;-64
2023/12/29 03:54:18;;;;;;;1999.90;999.90;;;;;;;-0.09;89.58;96821.78;5072878;28;20414;-67
2023/12/29 03:56:45;;;;;;;1999.90;999.90;;;;;;;-0.09;89.29;96816.66;5072754;28;20573;-66
2023/12/29 03:59:12;;;;;;;1999.90;999.90;;;;;;;-0.17;88.80;96814.88;5072785;28;20045;-68
2023/12/29 04:01:39;;;;;;;1999.90;999.90;;;;;;;-0.21;89.30;96807.94;5072620;28;20057;-63
2023/12/29 04:04:07;;;;;;;1999.90;999.90;;;;;;;-0.20;89.61;96799.41;5072857;28;20129;-65
2023/12/29 04:06:35;;;;;;;1999.90;999.90;;;;;;;-0.20;90.09;96809.69;5072755;28;20056;-68
2023/12/29 04:09:03;;;;;;;1999.90;999.90;;;;;;;-0.17;89.78;96793.41;5072626;28;20098;-66
2023/12/29 04:11:30;;;;;;;1999.90;999.90;;;;;;;-0.11;90.04;96801.19;5072852;28;20465;-64
2023/12/29 04:13:57;;;;;;;1999.90;999.90;;;;;;;-0.13;90.13;96805.44;5072845;28;20456;-68
2023/12/29 04:16:24;;;;;;;1999.90;999.90;;;;;;;-0.11;90.76;96803.75;5072595;28;20076;-67
2023/12/29 04:18:52;;;;;;;1999.90;999.90;;;;;;;-0.12;91.00;96799.44;5072272;28;20045;-66
2023/12/29 04:21:19;;;;;;;1999.90;999.90;;;;;;;-0.16;90.58;96801.16;5072511;28;20098;-63
2023/12/29 04:23:49;;;;;;;1999.90;999.90;;;;;;;-0.15;90.38;96791.75;5072552;28;20123;-67
2023/12/29 04:26:16;;;;;;;1999.90;999.90;;;;;;;-0.10;89.50;96800.34;5072536;28;20051;-67
2023/12/29 04:28:43;;;;;;;1999.90;999.90;;;;;;;-0.11;89.43;96808.03;5072598;28;20470;-64
2023/12/29 04:31:10;;;;;;;1999.90;999.90;;;;;;;-0.17;89.89;96809.72;5075073;28;20045;-65
2023/12/29 04:33:38;;;;;;;1999.90;999.90;;;;;;;-0.17;90.79;96799.44;5076216;28;20406;-65
2023/12/29 04:36:05;;;;;;;1999.90;999.90;;;;;;;-0.09;91.14;96802.06;5076194;28;20059;-64
2023/12/29 04:38:32;;;;;;;1999.90;999.90;;;;;;;-0.11;91.06;96801.19;5076244;28;20049;-65
2023/12/29 04:41:01;;;;;;;1999.90;999.90;;;;;;;-0.08;91.04;96797.78;5076102;28;20055;-67
2023/12/29 04:43:29;;;;;;;1999.90;999.90;;;;;;;-0.12;90.54;96799.44;5076048;28;20075;-66
2023/12/29 04:45:57;;;;;;;1999.90;999.90;;;;;;;-0.15;90.27;96800.28;5076039;28;20135;-65
2023/12/29 04:48:24;;;;;;;1999.90;999.90;;;;;;;-0.16;90.04;96797.72;5075921;28;20047;-64
2023/12/29 04:50:51;;;;;;;1999.90;999.90;;;;;;;-0.17;90.23;96801.13;5075811;28;20048;-64
2023/12/29 04:53:18;;;;;;;1999.90;999.90;;;;;;;-0.19;90.58;96793.41;5075888;28;20163;-62
2023/12/29 04:55:45;;;;;;;1999.90;999.90;;;;;;;-0.21;91.13;96794.25;5075859;28;20048;-64
2023/12/29 04:58:14;;;;;;;1999.90;999.90;;;;;;;-0.11;92.33;96795.19;5075749;28;20044;-68
2023/12/29 05:00:41;;;;;;;1999.90;999.90;;;;;;;-0.01;91.68;96795.28;5075596;28;20044;-66
2023/12/29 05:03:08;;;;;;;1999.90;999.90;;;;;;;-0.03;90.49;96788.41;5075589;28;20041;-61
2023/12/29 05:05:35;;;;;;;1999.90;999.90;;;;;;;0.03;90.07;96797.88;5075820;28;20052;-68
2023/12/29 05:08:03;;;;;;;1999.90;999.90;;;;;;;0.07;89.49;96797.03;5075675;28;20044;-65
2023/12/29 05:10:30;;;;;;;1999.90;999.90;;;;;;;0.06;88.98;96791.03;5075532;28;20057;-67
2023/12/29 05:12:57;;;;;;;1999.90;999.90;;;;;;;-0.01;89.24;96796.97;5075434;28;20159;-67
2023/12/29 05:15:26;;;;;;;1999.90;999.90;;;;;;;-0.09;89.13;96802.06;5075415;28;20048;-67
2023/12/29 05:17:53;;;;;;;1999.90;999.90;;;;;;;-0.08;89.82;96803.78;5075575;28;20131;-69
2023/12/29 05:20:21;;;;;;;1999.90;999.90;;;;;;;-0.11;89.74;96798.63;5075135;28;20575;-66
2023/12/29 05:22:48;;;;;;;1999.90;999.90;;;;;;;-0.17;89.62;96799.44;5075233;28;20097;-69
2023/12/29 05:25:15;;;;;;;1999.90;999.90;;;;;;;-0.09;89.62;96803.78;5075272;28;20048;-69
2023/12/29 05:27:42;;;;;;;1999.90;999.90;;;;;;;-0.13;89.42;96801.19;5075142;28;20479;-63
2023/12/29 05:30:10;;;;;;;1999.90;999.90;;;;;;;-0.14;89.44;96806.31;5075199;28;20049;-64
2023/12/29 05:32:39;;;;;;;1999.90;999.90;;;;;;;-0.08;89.64;96810.63;5075323;28;20057;-64
2023/12/29 05:35:07;;;;;;;1999.90;999.90;;;;;;;-0.05;89.52;96808.97;5075221;28;20052;-66
2023/12/29 05:37:34;;;;;;;1999.90;999.90;;;;;;;0.05;89.03;96812.47;5075135;28;20098;-68
2023/12/29 05:40:02;;;;;;;1999.90;999.90;;;;;;;0.12;89.06;96821.94;5074952;28;20098;-66
2023/12/29 05:42:29;;;;;;;1999.90;999.90;;;;;;;0.20;89.04;96816.88;5074269;28;20052;-64
2023/12/29 05:44:56;;;;;;;1999.90;999.90;;;;;;;0.21;88.56;96817.75;5074879;28;20045;-66
2023/12/29 05:47:23;;;;;;;1999.90;999.90;;;;;;;0.25;88.82;96811.75;5074939;28;20083;-67
2023/12/29 05:49:52;;;;;;;1999.90;999.90;;;;;;;0.27;88.61;96816.94;5074890;28;20071;-65
2023/12/29 05:52:23;;;;;;;1999.90;999.90;;;;;;;0.33;88.01;96822.97;5074823;28;20074;-67
2023/12/29 05:54:50;;;;;;;1999.90;999.90;;;;;;;0.25;87.51;96819.47;5074702;28;20471;-66
2023/12/29 05:57:17;;;;;;;1999.90;999.90;;;;;;;0.12;88.09;96813.41;5074632;28;20044;-68
2023/12/29 05:59:44;;;;;;;1999.90;999.90;;;;;;;0.09;89.12;96806.50;5074575;28;20482;-68
2023/12/29 06:02:12;;;;;;;1999.90;999.90;;;;;;;0.24;89.86;96808.31;5074438;28;20565;-66
2023/12/29 06:04:39;;;;;;;1999.90;999.90;;;;;;;0.29;89.33;96807.47;5074403;28;20505;-64
2023/12/29 06:07:08;;;;;;;1999.90;999.90;;;;;;;0.23;88.08;96806.59;5074417;28;20075;-68
2023/12/29 06:09:35;;;;;;;1999.90;999.90;;;;;;;0.22;87.78;96804.88;5074406;28;20122;-69
2023/12/29 06:12:03;;;;;;;1999.90;999.90;;;;;;;0.24;87.89;96807.47;5074471;28;20045;-63
2023/12/29 06:14:30;;;;;;;1999.90;999.90;;;;;;;0.31;87.46;96803.22;5074268;28;20052;-68
2023/12/29 06:16:57;;;;;;;1999.90;999.90;;;;;;;0.31;88.01;96806.66;5074128;28;20090;-66
2023/12/29 06:19:25;;;;;;;1999.90;999.90;;;;;;;0.36;88.35;96807.53;5073874;28;20124;-69
2023/12/29 06:21:52;;;;;;;1999.90;999.90;;;;;;;0.42;88.14;96811.03;5074019;28;20052;-67
2023/12/29 06:24:25;;;;;;;1999.90;999.90;;;;;;;0.56;88.97;96809.38;5074050;28;20049;-68
2023/12/29 06:26:53;;;;;;;1999.90;999.90;;;;;;;0.81;89.19;96812.09;5074006;28;20585;-64
2023/12/29 06:29:20;;;;;;;1999.90;999.90;;;;;;;1.31;88.45;96808.84;5073896;28;20051;-68
2023/12/29 06:31:47;;;;;;;1999.90;999.90;;;;;;;1.95;85.78;96820.16;5073858;28;20083;-64
2023/12/29 06:34:15;;;;;;;1999.90;999.90;;;;;;;2.60;81.48;96814.13;5073870;28;20559;-65
2023/12/29 06:36:42;;;;;;;1999.90;999.90;;;;;;;3.62;79.76;96818.91;5073987;28;20445;-66
2023/12/29 06:39:10;;;;;;;1999.90;999.90;;;;;;;4.88;74.27;96825.63;5073798;28;20123;-66
2023/12/29 06:41:39;;;;;;;1999.90;999.90;;;;;;;6.41;68.41;96840.94;5073657;28;20083;-64
2023/12/29 06:44:06;;;;;;;1999.90;999.90;;;;;;;7.92;63.08;96842.38;5073645;28;20040;-68
2023/12/29 06:46:34;;;;;;;1999.90;999.90;;;;;;;8.91;58.58;96857.41;5073602;28;20506;-65
2023/12/29 06:49:02;;;;;;;1999.90;999.90;;;;;;;9.77;54.05;96830.66;5073599;28;20127;-67
2023/12/29 06:51:29;;;;;;;1999.90;999.90;;;;;;;10.98;50.61;96826.81;5073671;28;20045;-68
2023/12/29 06:53:57;;;;;;;1999.90;999.90;;;;;;;12.18;47.37;96825.94;5073433;28;20559;-65
2023/12/29 06:56:25;;;;;;;1999.90;999.90;;;;;;;13.25;44.39;96826.72;5073630;28;20048;-63
2023/12/29 06:58:55;;;;;;;1999.90;999.90;;;;;;;14.31;42.51;96821.06;5073365;28;20055;-68
2023/12/29 07:01:24;;;;;;;1999.90;999.90;;;;;;;15.57;40.40;96820.91;5073303;28;20494;-68
2023/12/29 07:03:51;;;;;;;1999.90;999.90;;;;;;;16.99;37.94;96826.22;5073431;28;20052;-65
2023/12/29 07:06:20;;;;;;;1999.90;999.90;;;;;;;18.13;35.69;96822.00;5073308;28;20045;-65
2023/12/29 07:08:48;;;;;;;1999.90;999.90;;;;;;;19.09;33.70;96828.13;5073271;28;20483;-65
2023/12/29 07:11:15;;;;;;;1999.90;999.90;;;;;;;19.90;32.35;96833.13;5073390;28;20149;-67
2023/12/29 07:13:45;;;;;;;1999.90;999.90;;;;;;;20.54;30.96;96835.72;5073305;28;20051;-68
2023/12/29 07:16:14;;;;;;;1999.90;999.90;;;;;;;21.22;30.76;96840.44;5073107;28;20048;-68
2023/12/29 07:18:42;;;;;;;1999.90;999.90;;;;;;;21.82;29.36;96832.28;5073257;28;20097;-66
2023/12/29 07:21:11;;;;;;;1999.90;999.90;;;;;;;22.32;28.36;96839.00;5073009;28;20399;-63
2023/12/29 07:23:39;;;;;;;1999.90;999.90;;;;;;;22.78;27.90;96832.69;5073235;28;20044;-67
2023/12/29 07:26:06;;;;;;;1999.90;999.90;;;;;;;23.30;26.96;96834.59;5073182;28;20045;-66
2023/12/29 07:28:34;;;;;;;1999.90;999.90;;;;;;;23.72;25.18;96836.38;5073255;28;20494;-65
2023/12/29 07:31:07;;;;;;;1999.90;999.90;;;;;;;24.02;25.24;96828.47;5073370;28;20045;-65
2023/12/29 07:33:38;;;;;;;1999.90;999.90;;;;;;;24.31;24.91;96825.03;5073160;28;20119;-65
2023/12/29 07:36:05;;;;;;;;;;;;;;;24.73;23.64;96835.50;5073619;28;20048;-67
2023/12/29 07:38:33;;;;;;;1999.90;999.90;;;;;;;24.92;24.55;96836.47;5072978;28;20372;-67
2023/12/29 07:41:00;;;;;;;1999.90;999.90;;;;;;;25.48;23.95;96833.16;5073321;28;20041;-67
2023/12/29 07:43:33;;;;;;;1999.90;999.90;;;;;;;26.01;23.03;96830.00;5072786;28;20045;-65
2023/12/29 07:46:01;;;;;;;1999.90;999.90;;;;;;;26.42;22.98;96826.94;5072529;28;20071;-64
2023/12/29 07:48:28;;;;;;;1999.90;999.90;;;;;;;26.76;22.09;96837.03;5072894;28;20048;-66
2023/12/29 07:51:04;;;;;;;1999.90;999.90;;;;;;;26.90;23.64;96841.00;5072790;28;20083;-63
2023/12/29 07:53:32;;;;;;;1999.90;999.90;;;;;;;27.17;23.12;96846.41;5072760;28;20491;-67
2023/12/29 07:55:59;;;;;;;1999.90;999.90;;;;;;;27.02;23.39;96840.81;5072845;28;20083;-65
2023/12/29 07:58:27;;;;;;;1999.90;999.90;;;;;;;26.98;22.38;96841.09;5072776;28;20049;-64
2023/12/29 08:00:54;;;;;;;1999.90;999.90;;;;;;;26.92;22.03;96844.38;5072783;28;20484;-63
2023/12/29 08:03:22;;;;;;;1999.90;999.90;;;;;;;26.98;22.51;96838.41;5072822;28;20453;-67
2023/12/29 08:05:49;;;;;;;1999.90;999.90;;;;;;;27.32;22.89;96828.75;5074819;28;20545;-65
2023/12/29 08:08:18;;;;;;;53.08;50.03;;;;;;;27.50;21.31;96830.53;5076586;28;20091;-69
2023/12/29 08:10:46;;;;;;;47.35;44.35;;;;;;;27.41;22.53;96834.16;5076734;28;20143;-69
2023/12/29 08:13:15;;;;;;;48.92;46.03;;;;;;;27.55;22.68;96835.44;5076465;28;20052;-66
2023/12/29 08:15:42;;;;;;;46.00;42.97;;;;;;;27.54;22.38;96831.91;5076560;28;20049;-64
2023/12/29 08:18:10;;;;;;;44.83;42.25;;;;;;;28.05;22.68;96836.53;5076539;28;20055;-67
2023/12/29 08:20:38;;;;;;;45.55;42.85;;;;;;;28.37;21.76;96831.47;5076212;28;20045;-67
2023/12/29 08:23:06;;;;;;;50.85;47.85;;;;;;;28.96;21.05;96833.22;5076186;28;20060;-63
2023/12/29 08:25:36;;;;;;;51.72;48.63;;;;;;;28.67;21.18;96836.38;5076440;28;20087;-62
2023/12/29 08:28:05;;;;;;;49.30;46.17;;;;;;;28.47;21.76;96839.41;5076248;28;20410;-67
2023/12/29 08:30:35;;;;;;;47.05;44.05;;;;;;;28.33;22.49;96841.72;5076205;28;20048;-65
2023/12/29 08:33:06;;;;;;;49.67;46.83;;;;;;;28.20;22.00;96841.31;5076172;28;20131;-67
2023/12/29 08:35:33;;;;;;;;;;;;;;;27.98;22.08;96841.72;5076539;28;20048;-67
2023/12/29 08:38:01;;;;;;;44.00;41.40;;;;;;;27.73;21.71;96838.94;5076091;28;19924;-69
2023/12/29 08:40:28;;;;;;;39.38;37.13;;;;;;;27.04;22.04;96836.09;5076068;28;20443;-67
2023/12/29 08:42:58;;;;;;;41.40;38.83;;;;;;;26.32;23.29;96835.94;5075964;28;20052;-65
2023/12/29 08:45:25;;;;;;;37.13;34.83;;;;;;;25.27;23.62;96833.34;5075982;28;20048;-65
2023/12/29 08:47:52;;;;;;;50.00;46.95;;;;;;;24.20;25.34;96832.19;5075871;28;20048;-67
2023/12/29 08:50:21;;;;;;;1999.90;999.90;;;;;;;23.42;26.38;96830.03;5075886;28;20047;-66
2023/12/29 08:52:48;;;;;;;1999.90;999.90;;;;;;;22.81;27.84;96835.06;5075900;28;20063;-65
2023/12/29 08:55:16;;;;;;;1999.90;999.90;;;;;;;22.71;27.86;96835.00;5075777;28;20048;-65
2023/12/29 08:57:43;;;;;;;1999.90;999.90;;;;;;;22.61;25.38;96837.59;5075723;28;20128;-66
2023/12/29 09:00:13;;;;;;;1999.90;999.90;;;;;;;22.26;27.25;96831.50;5075681;28;20048;-65
2023/12/29 09:02:41;;;;;;;1999.90;999.90;;;;;;;22.08;25.53;96833.81;5075357;28;20045;-65
2023/12/29 09:05:09;;;;;;;1999.90;999.90;;;;;;;21.94;26.65;96827.78;5075599;28;20052;-64
2023/12/29 09:07:39;;;;;;;1999.90;999.90;;;;;;;21.31;26.94;96831.75;5075582;28;20052;-69
2023/12/29 09:10:10;;;;;;;;;;;;;;;20.57;28.09;96825.72;5075936;28;20040;-67
2023/12/29 09:12:38;;;;;;;1999.90;999.90;;;;;;;19.93;29.06;96818.81;5075463;28;19971;-65
2023/12/29 09:15:07;;;;;;;1999.90;999.90;;;;;;;19.27;30.19;96811.91;5075249;28;20503;-65
2023/12/29 09:17:36;;;;;;;1999.90;999.90;;;;;;;18.79;30.80;96818.63;5074219;28;20080;-65
2023/12/29 09:20:04;;;;;;;1999.90;999.90;;;;;;;18.23;31.83;96814.28;5075209;28;20499;-69
2023/12/29 09:22:32;;;;;;;1999.90;999.90;;;;;;;17.61;32.86;96819.88;5075224;28;20135;-63
2023/12/29 09:24:59;;;;;;;1999.90;999.90;;;;;;;17.33;33.33;96820.75;5075377;28;20045;-67
2023/12/29 09:27:26;;;;;;;1999.90;999.90;;;;;;;16.50;34.62;96809.69;5075253;28;20048;-66
2023/12/29 09:29:54;;;;;;;1999.90;999.90;;;;;;;15.74;35.92;96797.13;5075198;28;20083;-62
2023/12/29 09:32:22;;;;;;;1999.90;999.90;;;;;;;15.64;35.87;96795.91;5075071;28;20040;-68
2023/12/29 09:34:51;;;;;;;1999.90;999.90;;;;;;;15.60;36.15;96787.34;5075077;28;20052;-67
2023/12/29 09:37:19;;;;;;;1999.90;999.90;;;;;;;15.53;36.66;96786.81;5075036;28;20055;-65
2023/12/29 09:39:47;;;;;;;1999.90;999.90;;;;;;;15.46;36.66;96785.44;5075047;28;20045;-66
2023/12/29 09:42:22;;;;;;;1999.90;999.90;;;;;;;15.48;37.05;96780.09;5074861;28;20491;-66
2023/12/29 09:44:52;;;;;;;1999.90;999.90;;;;;;;15.40;36.71;96781.34;5074782;28;20045;-64
2023/12/29 09:47:26;;;;;;;1999.90;999.90;;;;;;;15.19;37.06;96775.44;5074911;28;20048;-65
2023/12/29 09:49:57;;;;;;;1999.90;999.90;;;;;;;15.21;37.69;96778.00;5074843;28;20059;-66
2023/12/29 09:52:25;;;;;;;;;;;;;;;15.29;37.48;96776.66;5075060;28;20106;-65
2023/12/29 09:54:56;;;;;;;1999.90;999.90;;;;;;;15.32;37.81;96780.91;5074643;28;19924;-64
2023/12/29 09:57:24;;;;;;;1999.90;999.90;;;;;;;15.35;37.93;96767.56;5074719;28;20052;-66
2023/12/29 09:59:54;;;;;;;1999.90;999.90;;;;;;;15.31;37.83;96766.03;5074604;28;20056;-67
2023/12/29 10:02:23;;;;;;;1999.90;999.90;;;;;;;15.31;37.93;96759.91;5074470;28;20084;-63
2023/12/29 10:04:51;;;;;;;1999.90;999.90;;;;;;;15.27;37.77;96764.50;5074392;28;20289;-66
2023/12/29 10:07:29;;;;;;;1999.90;999.90;;;;;;;15.26;37.82;96753.09;5074504;28;20099;-63
2023/12/29 10:09:58;;;;;;;1999.90;999.90;;;;;;;15.32;37.65;96753.72;5074598;28;20053;-62
2023/12/29 10:12:29;;;;;;;1999.90;999.90;;;;;;;15.31;37.82;96754.63;5074467;28;20048;-63
2023/12/29 10:15:09;;;;;;;1999.90;999.90;;;;;;;15.28;37.84;96742.47;5074364;28;20044;-65
2023/12/29 10:17:50;;;;;;;1999.90;999.90;;;;;;;15.31;38.03;96742.31;5074266;28;20040;-65
2023/12/29 10:20:46;;;;;;;1999.90;999.90;;;;;;;15.38;37.62;96732.31;5073919;28;20048;-67
2023/12/29 10:23:21;;;;;;;1999.90;999.90;;;;;;;15.41;37.21;96732.97;5073864;28;20482;-68
2023/12/29 10:25:51;;;;;;;1999.90;999.90;;;;;;;15.41;37.07;96732.97;5073998;28;20048;-67
2023/12/29 10:28:19;;;;;;;1999.90;999.90;;;;;;;15.35;36.59;96730.66;5073786;28;20580;-63
2023/12/29 10:30:46;;;;;;;1999.90;999.90;;;;;;;15.33;36.52;96716.75;5074023;28;20063;-65
2023/12/29 10:33:24;;;;;;;1999.90;999.90;;;;;;;15.33;36.97;96718.50;5074058;28;20048;-67
2023/12/29 10:36:02;;;;;;;1999.90;999.90;;;;;;;15.36;36.46;96715.72;5073909;28;20509;-67
2023/12/29 10:38:32;;;;;;;1999.90;999.90;;;;;;;15.35;36.95;96716.66;5073882;28;20094;-65
2023/12/29 10:41:13;;;;;;;1999.90;999.90;;;;;;;15.40;37.51;96714.59;5073684;28;20049;-68
2023/12/29 10:43:41;;;;;;;1999.90;999.90;;;;;;;15.38;38.28;96711.22;5073725;28;20092;-69
2023/12/29 10:46:11;;;;;;;1999.90;999.90;;;;;;;15.39;37.90;96710.28;5073738;28;20045;-66
2023/12/29 10:48:38;;;;;;;1999.90;999.90;;;;;;;15.38;38.25;96711.22;5073667;28;20084;-66
2023/12/29 10:51:10;;;;;;;1999.90;999.90;;;;;;;15.44;38.39;96712.66;5073547;28;20125;-69
2023/12/29 10:53:50;;;;;;;1999.90;999.90;;;;;;;15.47;37.72;96709.88;5073539;28;20049;-68
2023/12/29 10:56:22;;;;;;;1999.90;999.90;;;;;;;15.34;38.78;96702.63;5073475;28;20048;-65
2023/12/29 10:59:00;;;;;;;1999.90;999.90;;;;;;;15.35;39.03;96698.22;5073370;28;20056;-66
2023/12/29 11:01:27;;;;;;;1999.90;999.90;;;;;;;15.37;39.12;96697.19;5073360;28;20044;-70
2023/12/29 11:04:02;;;;;;;1999.90;999.90;;;;;;;15.41;38.64;96696.06;5073227;28;20049;-65
2023/12/29 11:06:31;;;;;;;1999.90;999.90;;;;;;;15.45;38.68;96685.38;5073266;28;20143;-64